sensor_id;sensor_type;location;lat;lon;timestamp;pressure;altitude;pressure_sealevel;temperature;humidity
73594;BME280;64760;53.404;23.498;2023-05-02T00:02:14;99805.66;;;4.51;65.83
73594;BME280;64760;53.404;23.498;2023-05-02T00:04:41;99810.19;;;4.58;65.37
73594;BME280;64760;53.404;23.498;2023-05-02T00:07:07;99811.03;;;4.59;65.43
73594;BME280;64760;53.404;23.498;2023-05-02T00:09:34;99801.72;;;4.55;64.81
73594;BME280;64760;53.404;23.498;2023-05-02T00:12:00;99800.03;;;4.54;64.92
73594;BME280;64760;53.404;23.498;2023-05-02T00:14:27;99789.41;;;4.54;65.15
73594;BME280;64760;53.404;23.498;2023-05-02T00:16:53;99789.59;;;4.52;64.67
73594;BME280;64760;53.404;23.498;2023-05-02T00:19:21;99789.97;;;4.57;64.35
73594;BME280;64760;53.404;23.498;2023-05-02T00:21:47;99787.31;;;4.57;64.88
73594;BME280;64760;53.404;23.498;2023-05-02T00:24:14;99794.13;;;4.60;64.41
73594;BME280;64760;53.404;23.498;2023-05-02T00:26:42;99789.41;;;4.54;64.72
73594;BME280;64760;53.404;23.498;2023-05-02T00:29:08;99795.28;;;4.57;64.62
73594;BME280;64760;53.404;23.498;2023-05-02T00:31:34;99782.81;;;4.58;64.88
73594;BME280;64760;53.404;23.498;2023-05-02T00:34:01;99789.13;;;4.57;65.09
73594;BME280;64760;53.404;23.498;2023-05-02T00:36:27;99775.97;;;4.47;65.63
73594;BME280;64760;53.404;23.498;2023-05-02T00:38:53;99778.94;;;4.44;65.60
73594;BME280;64760;53.404;23.498;2023-05-02T00:41:20;99780.56;;;4.37;66.30
73594;BME280;64760;53.404;23.498;2023-05-02T00:43:46;99780.09;;;4.42;66.29
73594;BME280;64760;53.404;23.498;2023-05-02T00:46:13;99778.34;;;4.33;66.18
73594;BME280;64760;53.404;23.498;2023-05-02T00:48:40;99774.88;;;4.32;66.22
73594;BME280;64760;53.404;23.498;2023-05-02T00:51:06;99783.03;;;4.39;66.41
73594;BME280;64760;53.404;23.498;2023-05-02T00:53:36;99781.38;;;4.38;66.33
73594;BME280;64760;53.404;23.498;2023-05-02T00:56:03;99770.22;;;4.34;66.23
73594;BME280;64760;53.404;23.498;2023-05-02T00:58:29;99766.59;;;4.35;66.68
73594;BME280;64760;53.404;23.498;2023-05-02T01:09:28;99764.00;;;4.17;67.45
73594;BME280;64760;53.404;23.498;2023-05-02T01:14:50;99761.34;;;4.17;67.61
73594;BME280;64760;53.404;23.498;2023-05-02T01:17:19;99762.25;;;4.08;67.93
73594;BME280;64760;53.404;23.498;2023-05-02T01:19:55;99757.41;;;4.04;68.19
73594;BME280;64760;53.404;23.498;2023-05-02T01:22:25;99741.97;;;3.99;68.37
73594;BME280;64760;53.404;23.498;2023-05-02T01:30:18;99747.72;;;4.12;67.66
73594;BME280;64760;53.404;23.498;2023-05-02T01:32:47;99744.53;;;4.09;67.78
73594;BME280;64760;53.404;23.498;2023-05-02T01:35:15;99738.72;;;4.05;67.84
73594;BME280;64760;53.404;23.498;2023-05-02T01:37:46;99750.91;;;3.98;68.57
73594;BME280;64760;53.404;23.498;2023-05-02T01:40:16;99748.09;;;4.00;68.67
73594;BME280;64760;53.404;23.498;2023-05-02T01:42:49;99738.66;;;3.97;69.30
73594;BME280;64760;53.404;23.498;2023-05-02T01:45:18;99740.00;;;4.01;68.84
73594;BME280;64760;53.404;23.498;2023-05-02T01:47:46;99741.72;;;4.10;68.30
73594;BME280;64760;53.404;23.498;2023-05-02T01:50:18;99735.66;;;4.18;67.28
73594;BME280;64760;53.404;23.498;2023-05-02T01:52:48;99729.84;;;4.22;67.24
73594;BME280;64760;53.404;23.498;2023-05-02T01:55:16;99727.56;;;4.28;66.76
73594;BME280;64760;53.404;23.498;2023-05-02T01:57:45;99715.19;;;4.36;66.73
73594;BME280;64760;53.404;23.498;2023-05-02T02:00:17;99717.00;;;4.36;66.03
73594;BME280;64760;53.404;23.498;2023-05-02T02:02:45;99714.03;;;4.39;66.37
73594;BME280;64760;53.404;23.498;2023-05-02T02:05:14;99709.75;;;4.38;66.13
73594;BME280;64760;53.404;23.498;2023-05-02T02:07:42;99711.19;;;4.32;66.50
73594;BME280;64760;53.404;23.498;2023-05-02T02:10:09;99709.69;;;4.30;66.91
73594;BME280;64760;53.404;23.498;2023-05-02T02:12:46;99706.22;;;4.29;67.32
73594;BME280;64760;53.404;23.498;2023-05-02T02:18:18;99705.41;;;4.37;66.91
73594;BME280;64760;53.404;23.498;2023-05-02T02:20:37;99694.63;;;4.38;66.81
73594;BME280;64760;53.404;23.498;2023-05-02T02:23:07;99701.81;;;4.46;66.11
73594;BME280;64760;53.404;23.498;2023-05-02T02:25:34;99704.78;;;4.43;66.96
73594;BME280;64760;53.404;23.498;2023-05-02T02:28:01;99709.09;;;4.44;66.72
73594;BME280;64760;53.404;23.498;2023-05-02T02:30:27;99698.81;;;4.41;67.00
73594;BME280;64760;53.404;23.498;2023-05-02T02:32:54;99690.84;;;4.41;67.03
73594;BME280;64760;53.404;23.498;2023-05-02T02:35:20;99689.88;;;4.42;67.30
73594;BME280;64760;53.404;23.498;2023-05-02T02:38:36;99699.16;;;4.46;67.04
73594;BME280;64760;53.404;23.498;2023-05-02T02:40:52;99686.06;;;4.44;67.21
73594;BME280;64760;53.404;23.498;2023-05-02T02:43:32;99691.88;;;4.48;67.37
73594;BME280;64760;53.404;23.498;2023-05-02T02:46:16;99683.59;;;4.51;67.35
73594;BME280;64760;53.404;23.498;2023-05-02T02:49:05;99685.91;;;4.54;67.08
73594;BME280;64760;53.404;23.498;2023-05-02T02:54:13;99673.31;;;4.56;67.11
73594;BME280;64760;53.404;23.498;2023-05-02T02:56:44;99677.81;;;4.55;67.49
73594;BME280;64760;53.404;23.498;2023-05-02T02:59:16;99670.66;;;4.56;67.26
73594;BME280;64760;53.404;23.498;2023-05-02T03:01:47;99671.56;;;4.72;66.76
73594;BME280;64760;53.404;23.498;2023-05-02T03:04:20;99668.59;;;4.76;66.29
73594;BME280;64760;53.404;23.498;2023-05-02T03:06:47;99660.00;;;4.82;65.75
73594;BME280;64760;53.404;23.498;2023-05-02T03:09:17;99659.47;;;4.86;65.84
73594;BME280;64760;53.404;23.498;2023-05-02T03:11:45;99661.50;;;4.92;65.92
73594;BME280;64760;53.404;23.498;2023-05-02T03:14:13;99660.84;;;4.98;65.60
73594;BME280;64760;53.404;23.498;2023-05-02T03:16:40;99662.03;;;5.04;65.22
73594;BME280;64760;53.404;23.498;2023-05-02T03:19:11;99649.91;;;5.01;65.05
73594;BME280;64760;53.404;23.498;2023-05-02T03:21:37;99641.44;;;5.14;64.57
73594;BME280;64760;53.404;23.498;2023-05-02T03:24:15;99654.59;;;5.32;63.37
73594;BME280;64760;53.404;23.498;2023-05-02T03:26:42;99648.59;;;5.46;62.61
73594;BME280;64760;53.404;23.498;2023-05-02T03:29:11;99645.31;;;5.60;62.34
73594;BME280;64760;53.404;23.498;2023-05-02T03:31:40;99633.31;;;5.72;61.32
73594;BME280;64760;53.404;23.498;2023-05-02T03:34:07;99633.00;;;5.91;61.10
73594;BME280;64760;53.404;23.498;2023-05-02T03:36:34;99631.47;;;6.05;60.45
73594;BME280;64760;53.404;23.498;2023-05-02T03:39:01;99627.97;;;6.12;59.94
73594;BME280;64760;53.404;23.498;2023-05-02T03:41:28;99614.44;;;6.22;58.80
73594;BME280;64760;53.404;23.498;2023-05-02T03:44:02;99617.56;;;6.34;58.31
73594;BME280;64760;53.404;23.498;2023-05-02T03:46:28;99619.63;;;6.54;57.27
73594;BME280;64760;53.404;23.498;2023-05-02T03:48:58;99620.75;;;6.68;57.20
73594;BME280;64760;53.404;23.498;2023-05-02T03:51:25;99616.03;;;6.78;56.55
73594;BME280;64760;53.404;23.498;2023-05-02T03:53:54;99611.97;;;6.90;56.08
73594;BME280;64760;53.404;23.498;2023-05-02T03:56:20;99611.50;;;7.09;55.36
73594;BME280;64760;53.404;23.498;2023-05-02T03:58:57;99602.44;;;7.19;55.48
73594;BME280;64760;53.404;23.498;2023-05-02T04:01:25;99613.81;;;7.35;54.62
73594;BME280;64760;53.404;23.498;2023-05-02T04:03:53;99613.22;;;7.48;54.75
73594;BME280;64760;53.404;23.498;2023-05-02T04:06:22;99600.44;;;7.58;54.79
73594;BME280;64760;53.404;23.498;2023-05-02T04:08:55;99600.06;;;7.61;54.22
73594;BME280;64760;53.404;23.498;2023-05-02T04:11:23;99602.22;;;7.80;53.70
73594;BME280;64760;53.404;23.498;2023-05-02T04:13:51;99593.59;;;7.78;53.64
73594;BME280;64760;53.404;23.498;2023-05-02T04:16:18;99593.78;;;7.91;53.37
73594;BME280;64760;53.404;23.498;2023-05-02T04:18:44;99593.41;;;8.09;53.17
73594;BME280;64760;53.404;23.498;2023-05-02T04:21:11;99594.06;;;8.11;53.20
73594;BME280;64760;53.404;23.498;2023-05-02T04:23:38;99588.72;;;8.11;52.97
73594;BME280;64760;53.404;23.498;2023-05-02T04:26:05;99589.09;;;8.23;53.13
73594;BME280;64760;53.404;23.498;2023-05-02T04:28:51;99601.72;;;8.29;53.08
73594;BME280;64760;53.404;23.498;2023-05-02T04:31:18;99600.00;;;8.36;52.00
73594;BME280;64760;53.404;23.498;2023-05-02T04:33:45;99599.31;;;8.48;52.62
73594;BME280;64760;53.404;23.498;2023-05-02T04:36:16;99600.91;;;8.43;52.58
73594;BME280;64760;53.404;23.498;2023-05-02T04:38:45;99595.19;;;8.46;52.13
73594;BME280;64760;53.404;23.498;2023-05-02T04:41:13;99596.47;;;8.50;51.39
73594;BME280;64760;53.404;23.498;2023-05-02T04:43:46;99597.66;;;8.62;51.08
73594;BME280;64760;53.404;23.498;2023-05-02T04:46:15;99597.09;;;8.52;51.57
73594;BME280;64760;53.404;23.498;2023-05-02T04:48:41;99589.72;;;8.54;51.69
73594;BME280;64760;53.404;23.498;2023-05-02T04:51:08;99595.59;;;8.64;50.69
73594;BME280;64760;53.404;23.498;2023-05-02T04:53:36;99597.53;;;8.70;50.18
73594;BME280;64760;53.404;23.498;2023-05-02T04:56:03;99600.03;;;8.72;51.38
73594;BME280;64760;53.404;23.498;2023-05-02T04:58:32;99590.47;;;8.84;50.58
73594;BME280;64760;53.404;23.498;2023-05-02T05:01:05;99598.31;;;8.85;50.64
73594;BME280;64760;53.404;23.498;2023-05-02T05:03:31;99588.22;;;9.02;50.77
73594;BME280;64760;53.404;23.498;2023-05-02T05:06:00;99581.63;;;9.19;50.96
73594;BME280;64760;53.404;23.498;2023-05-02T05:08:28;99585.66;;;9.36;50.65
73594;BME280;64760;53.404;23.498;2023-05-02T05:10:55;99585.22;;;9.54;50.42
73594;BME280;64760;53.404;23.498;2023-05-02T05:13:23;99579.88;;;9.54;51.15
73594;BME280;64760;53.404;23.498;2023-05-02T05:15:49;99585.16;;;9.75;50.23
73594;BME280;64760;53.404;23.498;2023-05-02T05:18:17;99570.81;;;9.83;49.60
73594;BME280;64760;53.404;23.498;2023-05-02T05:20:43;99580.75;;;9.96;48.34
73594;BME280;64760;53.404;23.498;2023-05-02T05:23:11;99560.78;;;10.26;48.50
73594;BME280;64760;53.404;23.498;2023-05-02T05:25:37;99567.41;;;10.30;48.81
73594;BME280;64760;53.404;23.498;2023-05-02T05:28:05;99562.97;;;10.57;48.23
73594;BME280;64760;53.404;23.498;2023-05-02T05:30:35;99550.84;;;10.67;47.45
73594;BME280;64760;53.404;23.498;2023-05-02T05:33:04;99550.28;;;10.92;47.28
73594;BME280;64760;53.404;23.498;2023-05-02T05:35:30;99555.28;;;11.27;46.89
73594;BME280;64760;53.404;23.498;2023-05-02T05:37:59;99555.94;;;11.29;45.91
73594;BME280;64760;53.404;23.498;2023-05-02T05:40:27;99558.00;;;11.34;45.87
73594;BME280;64760;53.404;23.498;2023-05-02T05:42:56;99555.09;;;11.68;45.99
73594;BME280;64760;53.404;23.498;2023-05-02T05:45:30;99554.09;;;11.76;45.12
73594;BME280;64760;53.404;23.498;2023-05-02T05:47:57;99555.50;;;11.92;45.64
73594;BME280;64760;53.404;23.498;2023-05-02T05:50:26;99546.81;;;11.96;45.23
73594;BME280;64760;53.404;23.498;2023-05-02T05:52:53;99559.22;;;11.71;44.54
73594;BME280;64760;53.404;23.498;2023-05-02T05:55:19;99551.16;;;11.71;44.69
73594;BME280;64760;53.404;23.498;2023-05-02T05:57:46;99558.63;;;11.89;44.84
73594;BME280;64760;53.404;23.498;2023-05-02T06:00:13;99561.09;;;11.97;44.89
73594;BME280;64760;53.404;23.498;2023-05-02T06:02:44;99551.94;;;12.11;44.55
73594;BME280;64760;53.404;23.498;2023-05-02T06:05:17;99547.53;;;12.36;45.01
73594;BME280;64760;53.404;23.498;2023-05-02T06:07:44;99546.97;;;12.21;44.38
73594;BME280;64760;53.404;23.498;2023-05-02T06:10:10;99541.41;;;12.16;44.89
73594;BME280;64760;53.404;23.498;2023-05-02T06:12:38;99543.88;;;12.17;44.57
73594;BME280;64760;53.404;23.498;2023-05-02T06:15:05;99543.09;;;12.04;44.81
73594;BME280;64760;53.404;23.498;2023-05-02T06:17:32;99540.16;;;12.12;45.11
73594;BME280;64760;53.404;23.498;2023-05-02T06:19:58;99538.13;;;12.07;45.49
73594;BME280;64760;53.404;23.498;2023-05-02T06:22:25;99526.38;;;12.02;44.98
73594;BME280;64760;53.404;23.498;2023-05-02T06:24:51;99535.41;;;12.07;45.68
73594;BME280;64760;53.404;23.498;2023-05-02T06:27:18;99526.78;;;11.92;45.30
73594;BME280;64760;53.404;23.498;2023-05-02T06:29:44;99533.78;;;12.00;45.32
73594;BME280;64760;53.404;23.498;2023-05-02T06:32:10;99524.47;;;12.02;46.44
73594;BME280;64760;53.404;23.498;2023-05-02T06:34:36;99527.72;;;12.24;45.61
73594;BME280;64760;53.404;23.498;2023-05-02T06:37:03;99539.66;;;12.41;45.81
73594;BME280;64760;53.404;23.498;2023-05-02T06:39:29;99532.34;;;12.61;45.78
73594;BME280;64760;53.404;23.498;2023-05-02T06:41:56;99521.69;;;12.80;44.79
73594;BME280;64760;53.404;23.498;2023-05-02T06:44:23;99518.97;;;12.80;43.81
73594;BME280;64760;53.404;23.498;2023-05-02T06:46:49;99527.81;;;12.93;43.67
73594;BME280;64760;53.404;23.498;2023-05-02T06:49:16;99536.03;;;12.98;44.06
73594;BME280;64760;53.404;23.498;2023-05-02T06:51:42;99529.41;;;13.01;44.27
73594;BME280;64760;53.404;23.498;2023-05-02T06:54:09;99532.47;;;13.11;43.48
73594;BME280;64760;53.404;23.498;2023-05-02T06:56:36;99529.97;;;13.16;43.29
73594;BME280;64760;53.404;23.498;2023-05-02T06:59:02;99534.56;;;13.34;43.28
73594;BME280;64760;53.404;23.498;2023-05-02T07:01:29;99530.66;;;13.30;43.58
73594;BME280;64760;53.404;23.498;2023-05-02T07:03:56;99529.63;;;13.55;42.76
73594;BME280;64760;53.404;23.498;2023-05-02T07:06:23;99532.66;;;13.41;42.87
73594;BME280;64760;53.404;23.498;2023-05-02T07:08:49;99529.81;;;13.36;43.14
73594;BME280;64760;53.404;23.498;2023-05-02T07:11:15;99528.25;;;13.46;43.86
73594;BME280;64760;53.404;23.498;2023-05-02T07:13:41;99531.47;;;13.37;43.18
73594;BME280;64760;53.404;23.498;2023-05-02T07:16:08;99537.91;;;13.54;43.25
73594;BME280;64760;53.404;23.498;2023-05-02T07:18:34;99524.56;;;13.65;43.05
73594;BME280;64760;53.404;23.498;2023-05-02T07:21:01;99523.50;;;13.67;42.84
73594;BME280;64760;53.404;23.498;2023-05-02T07:23:27;99516.97;;;13.81;42.58
73594;BME280;64760;53.404;23.498;2023-05-02T07:25:54;99515.47;;;14.03;42.82
73594;BME280;64760;53.404;23.498;2023-05-02T07:28:20;99509.13;;;14.16;42.56
73594;BME280;64760;53.404;23.498;2023-05-02T07:30:46;99506.72;;;14.07;42.23
73594;BME280;64760;53.404;23.498;2023-05-02T07:33:13;99496.03;;;14.19;43.39
73594;BME280;64760;53.404;23.498;2023-05-02T07:35:41;99506.88;;;14.31;43.18
73594;BME280;64760;53.404;23.498;2023-05-02T07:38:07;99503.69;;;14.40;42.53
73594;BME280;64760;53.404;23.498;2023-05-02T07:40:33;99512.34;;;14.42;42.76
73594;BME280;64760;53.404;23.498;2023-05-02T07:43:00;99515.19;;;14.47;41.49
73594;BME280;64760;53.404;23.498;2023-05-02T07:45:27;99505.81;;;14.50;41.84
73594;BME280;64760;53.404;23.498;2023-05-02T07:47:53;99503.06;;;14.56;42.41
73594;BME280;64760;53.404;23.498;2023-05-02T07:50:19;99508.56;;;14.62;41.26
73594;BME280;64760;53.404;23.498;2023-05-02T07:52:46;99506.88;;;14.79;41.90
73594;BME280;64760;53.404;23.498;2023-05-02T07:55:12;99501.75;;;14.89;41.07
73594;BME280;64760;53.404;23.498;2023-05-02T07:57:39;99510.00;;;15.05;41.25
73594;BME280;64760;53.404;23.498;2023-05-02T08:00:06;99498.84;;;15.02;41.26
73594;BME280;64760;53.404;23.498;2023-05-02T08:02:43;99505.13;;;15.26;41.08
73594;BME280;64760;53.404;23.498;2023-05-02T08:05:11;99504.69;;;15.40;39.87
73594;BME280;64760;53.404;23.498;2023-05-02T08:07:37;99508.97;;;15.60;39.90
73594;BME280;64760;53.404;23.498;2023-05-02T08:10:07;99500.50;;;15.79;39.23
73594;BME280;64760;53.404;23.498;2023-05-02T08:12:40;99495.91;;;16.03;40.60
73594;BME280;64760;53.404;23.498;2023-05-02T08:15:07;99496.69;;;16.15;39.62
73594;BME280;64760;53.404;23.498;2023-05-02T08:17:36;99502.06;;;16.27;39.07
73594;BME280;64760;53.404;23.498;2023-05-02T08:20:03;99495.72;;;16.21;39.36
73594;BME280;64760;53.404;23.498;2023-05-02T08:22:30;99494.03;;;16.43;38.91
73594;BME280;64760;53.404;23.498;2023-05-02T08:24:57;99497.19;;;16.40;38.18
73594;BME280;64760;53.404;23.498;2023-05-02T08:27:23;99493.53;;;16.58;39.04
73594;BME280;64760;53.404;23.498;2023-05-02T08:29:49;99491.22;;;16.78;39.01
73594;BME280;64760;53.404;23.498;2023-05-02T08:32:16;99488.91;;;17.15;38.76
73594;BME280;64760;53.404;23.498;2023-05-02T08:34:43;99497.91;;;17.21;38.82
73594;BME280;64760;53.404;23.498;2023-05-02T08:37:09;99483.72;;;17.14;38.10
73594;BME280;64760;53.404;23.498;2023-05-02T08:39:37;99491.28;;;17.12;38.68
73594;BME280;64760;53.404;23.498;2023-05-02T08:42:07;99492.91;;;17.29;38.01
73594;BME280;64760;53.404;23.498;2023-05-02T08:44:34;99487.09;;;17.37;37.45
73594;BME280;64760;53.404;23.498;2023-05-02T08:47:02;99491.38;;;17.67;37.17
73594;BME280;64760;53.404;23.498;2023-05-02T08:49:34;99489.06;;;17.75;38.04
73594;BME280;64760;53.404;23.498;2023-05-02T08:52:03;99483.50;;;17.65;37.34
73594;BME280;64760;53.404;23.498;2023-05-02T08:54:36;99485.63;;;18.02;37.63
73594;BME280;64760;53.404;23.498;2023-05-02T08:57:04;99477.31;;;18.08;36.46
73594;BME280;64760;53.404;23.498;2023-05-02T08:59:33;99479.63;;;18.00;37.39
73594;BME280;64760;53.404;23.498;2023-05-02T09:05:06;99476.00;;;18.11;36.69
73594;BME280;64760;53.404;23.498;2023-05-02T09:07:46;99482.28;;;18.16;37.59
73594;BME280;64760;53.404;23.498;2023-05-02T09:10:14;99471.16;;;18.35;38.39
73594;BME280;64760;53.404;23.498;2023-05-02T09:12:44;99473.59;;;18.58;38.16
73594;BME280;64760;53.404;23.498;2023-05-02T09:15:14;99472.84;;;18.89;37.63
73594;BME280;64760;53.404;23.498;2023-05-02T09:17:43;99473.38;;;18.91;37.93
73594;BME280;64760;53.404;23.498;2023-05-02T09:20:17;99475.09;;;18.70;37.32
73594;BME280;64760;53.404;23.498;2023-05-02T09:22:48;99474.06;;;19.03;37.81
73594;BME280;64760;53.404;23.498;2023-05-02T09:25:19;99467.66;;;19.19;37.44
73594;BME280;64760;53.404;23.498;2023-05-02T09:27:50;99475.16;;;19.34;37.91
73594;BME280;64760;53.404;23.498;2023-05-02T09:30:27;99461.13;;;19.42;37.02
73594;BME280;64760;53.404;23.498;2023-05-02T09:32:54;99467.97;;;19.50;37.81
73594;BME280;64760;53.404;23.498;2023-05-02T09:35:52;99471.34;;;20.14;37.51
73594;BME280;64760;53.404;23.498;2023-05-02T09:38:22;99460.59;;;19.92;36.96
73594;BME280;64760;53.404;23.498;2023-05-02T09:40:54;99461.94;;;20.37;36.97
73594;BME280;64760;53.404;23.498;2023-05-02T09:43:22;99446.66;;;20.31;37.20
73594;BME280;64760;53.404;23.498;2023-05-02T09:46:05;99450.53;;;20.50;37.57
73594;BME280;64760;53.404;23.498;2023-05-02T09:48:52;99463.19;;;20.14;37.17
73594;BME280;64760;53.404;23.498;2023-05-02T09:51:19;99462.28;;;20.03;36.89
73594;BME280;64760;53.404;23.498;2023-05-02T09:53:46;99456.31;;;19.59;37.46
73594;BME280;64760;53.404;23.498;2023-05-02T09:56:13;99459.00;;;19.96;38.45
73594;BME280;64760;53.404;23.498;2023-05-02T09:58:39;99449.09;;;20.32;37.76
73594;BME280;64760;53.404;23.498;2023-05-02T10:01:05;99449.06;;;19.75;37.52
73594;BME280;64760;53.404;23.498;2023-05-02T10:03:36;99450.38;;;19.67;37.47
73594;BME280;64760;53.404;23.498;2023-05-02T10:06:03;99449.41;;;20.36;37.60
73594;BME280;64760;53.404;23.498;2023-05-02T10:08:32;99440.25;;;20.77;37.61
73594;BME280;64760;53.404;23.498;2023-05-02T10:11:04;99439.97;;;20.84;37.57
73594;BME280;64760;53.404;23.498;2023-05-02T10:13:33;99447.63;;;20.92;36.88
73594;BME280;64760;53.404;23.498;2023-05-02T10:16:04;99450.59;;;20.80;36.10
73594;BME280;64760;53.404;23.498;2023-05-02T10:18:57;99446.13;;;20.34;37.17
73594;BME280;64760;53.404;23.498;2023-05-02T10:21:27;99448.41;;;20.72;36.49
73594;BME280;64760;53.404;23.498;2023-05-02T10:23:53;99439.19;;;21.03;36.29
73594;BME280;64760;53.404;23.498;2023-05-02T10:26:20;99451.13;;;20.82;36.61
73594;BME280;64760;53.404;23.498;2023-05-02T10:28:49;99445.19;;;21.00;36.32
73594;BME280;64760;53.404;23.498;2023-05-02T10:31:17;99435.53;;;20.47;37.26
73594;BME280;64760;53.404;23.498;2023-05-02T10:33:45;99444.44;;;20.28;37.36
73594;BME280;64760;53.404;23.498;2023-05-02T10:36:12;99441.84;;;20.58;36.48
73594;BME280;64760;53.404;23.498;2023-05-02T10:38:39;99428.81;;;21.00;36.66
73594;BME280;64760;53.404;23.498;2023-05-02T10:41:11;99429.38;;;21.48;36.86
73594;BME280;64760;53.404;23.498;2023-05-02T10:43:39;99433.22;;;21.37;36.06
73594;BME280;64760;53.404;23.498;2023-05-02T10:46:32;99434.78;;;21.58;36.41
73594;BME280;64760;53.404;23.498;2023-05-02T10:49:11;99428.56;;;21.47;36.51
73594;BME280;64760;53.404;23.498;2023-05-02T10:51:39;99427.19;;;20.99;36.79
73594;BME280;64760;53.404;23.498;2023-05-02T10:59:30;99437.47;;;20.57;37.66
73594;BME280;64760;53.404;23.498;2023-05-02T11:01:57;99430.91;;;20.48;37.73
73594;BME280;64760;53.404;23.498;2023-05-02T11:04:23;99436.97;;;20.65;37.90
73594;BME280;64760;53.404;23.498;2023-05-02T11:11:54;99427.69;;;20.61;37.46
73594;BME280;64760;53.404;23.498;2023-05-02T11:17:09;99453.78;;;20.42;38.22
73594;BME280;64760;53.404;23.498;2023-05-02T11:22:30;99439.16;;;20.83;38.02
73594;BME280;64760;53.404;23.498;2023-05-02T11:24:56;99440.75;;;20.54;38.45
73594;BME280;64760;53.404;23.498;2023-05-02T11:30:08;99440.50;;;20.76;38.27
73594;BME280;64760;53.404;23.498;2023-05-02T11:35:36;99438.56;;;20.46;38.70
73594;BME280;64760;53.404;23.498;2023-05-02T11:38:11;99444.50;;;20.38;38.56
73594;BME280;64760;53.404;23.498;2023-05-02T11:40:38;99429.31;;;20.67;38.45
73594;BME280;64760;53.404;23.498;2023-05-02T11:43:16;99444.09;;;20.96;38.61
73594;BME280;64760;53.404;23.498;2023-05-02T11:45:43;99423.63;;;20.84;38.11
73594;BME280;64760;53.404;23.498;2023-05-02T11:48:11;99434.25;;;20.70;38.50
73594;BME280;64760;53.404;23.498;2023-05-02T11:53:13;99427.53;;;19.63;40.56
73594;BME280;64760;53.404;23.498;2023-05-02T11:55:48;99429.91;;;19.55;41.17
73594;BME280;64760;53.404;23.498;2023-05-02T11:58:16;99429.91;;;19.50;41.55
73594;BME280;64760;53.404;23.498;2023-05-02T12:00:44;99431.50;;;19.46;41.66
73594;BME280;64760;53.404;23.498;2023-05-02T12:03:19;99425.44;;;19.39;42.35
73594;BME280;64760;53.404;23.498;2023-05-02T12:05:47;99429.63;;;19.19;42.11
73594;BME280;64760;53.404;23.498;2023-05-02T12:08:18;99433.13;;;19.15;42.15
73594;BME280;64760;53.404;23.498;2023-05-02T12:10:46;99434.28;;;19.24;42.03
73594;BME280;64760;53.404;23.498;2023-05-02T12:13:12;99437.47;;;19.16;42.12
73594;BME280;64760;53.404;23.498;2023-05-02T12:15:39;99429.25;;;19.06;41.93
73594;BME280;64760;53.404;23.498;2023-05-02T12:18:05;99445.88;;;19.09;41.82
73594;BME280;64760;53.404;23.498;2023-05-02T12:20:33;99444.69;;;19.00;42.46
73594;BME280;64760;53.404;23.498;2023-05-02T12:22:59;99483.59;;;18.79;47.66
73594;BME280;64760;53.404;23.498;2023-05-02T12:25:26;99511.41;;;16.08;70.05
73594;BME280;64760;53.404;23.498;2023-05-02T12:28:00;99554.41;;;14.07;93.87
73594;BME280;64760;53.404;23.498;2023-05-02T12:30:28;99598.06;;;12.72;100.00
73594;BME280;64760;53.404;23.498;2023-05-02T12:32:56;99593.59;;;12.46;100.00
73594;BME280;64760;53.404;23.498;2023-05-02T12:35:24;99608.03;;;12.58;100.00
73594;BME280;64760;53.404;23.498;2023-05-02T12:37:51;99598.88;;;12.73;100.00
73594;BME280;64760;53.404;23.498;2023-05-02T12:40:19;99625.31;;;12.82;100.00
73594;BME280;64760;53.404;23.498;2023-05-02T12:43:02;99607.75;;;12.80;100.00
73594;BME280;64760;53.404;23.498;2023-05-02T12:45:30;99619.97;;;12.76;100.00
73594;BME280;64760;53.404;23.498;2023-05-02T12:48:00;99631.13;;;12.79;100.00
73594;BME280;64760;53.404;23.498;2023-05-02T12:50:39;99630.69;;;12.82;100.00
73594;BME280;64760;53.404;23.498;2023-05-02T12:53:05;99639.00;;;12.74;100.00
73594;BME280;64760;53.404;23.498;2023-05-02T12:55:32;99634.13;;;12.58;100.00
73594;BME280;64760;53.404;23.498;2023-05-02T12:58:09;99632.88;;;12.60;100.00
73594;BME280;64760;53.404;23.498;2023-05-02T13:00:40;99622.09;;;12.60;100.00
73594;BME280;64760;53.404;23.498;2023-05-02T13:03:07;99621.28;;;12.60;100.00
73594;BME280;64760;53.404;23.498;2023-05-02T13:05:35;99614.06;;;12.54;100.00
73594;BME280;64760;53.404;23.498;2023-05-02T13:08:02;99621.72;;;12.50;100.00
73594;BME280;64760;53.404;23.498;2023-05-02T13:10:29;99620.47;;;12.46;100.00
73594;BME280;64760;53.404;23.498;2023-05-02T13:12:55;99637.03;;;12.43;100.00
73594;BME280;64760;53.404;23.498;2023-05-02T13:15:21;99655.44;;;12.46;100.00
73594;BME280;64760;53.404;23.498;2023-05-02T13:17:49;99673.69;;;12.18;100.00
73594;BME280;64760;53.404;23.498;2023-05-02T13:20:16;99648.69;;;12.17;100.00
73594;BME280;64760;53.404;23.498;2023-05-02T13:22:42;99649.72;;;12.10;100.00
73594;BME280;64760;53.404;23.498;2023-05-02T13:25:09;99652.81;;;12.20;100.00
73594;BME280;64760;53.404;23.498;2023-05-02T13:27:35;99676.41;;;12.89;100.00
73594;BME280;64760;53.404;23.498;2023-05-02T13:30:02;99704.28;;;12.04;100.00
73594;BME280;64760;53.404;23.498;2023-05-02T13:32:29;99673.69;;;12.18;100.00
73594;BME280;64760;53.404;23.498;2023-05-02T13:34:55;99679.28;;;12.10;100.00
73594;BME280;64760;53.404;23.498;2023-05-02T13:37:22;99683.81;;;11.83;100.00
73594;BME280;64760;53.404;23.498;2023-05-02T13:39:48;99695.41;;;11.97;100.00
73594;BME280;64760;53.404;23.498;2023-05-02T13:42:14;99690.84;;;12.10;100.00
73594;BME280;64760;53.404;23.498;2023-05-02T13:44:41;99701.81;;;12.09;100.00
73594;BME280;64760;53.404;23.498;2023-05-02T13:47:07;99684.22;;;12.13;100.00
73594;BME280;64760;53.404;23.498;2023-05-02T13:49:33;99693.94;;;12.20;100.00
73594;BME280;64760;53.404;23.498;2023-05-02T13:51:59;99694.78;;;12.08;100.00